Time;durP1;ratioP1;P1;durP2;ratioP2;P2;SDS_P1;SDS_P2;PMS_P1;PMS_P2;Temp;Humidity;BMP_temperature;BMP_pressure;BME280_temperature;BME280_humidity;BME280_pressure;Samples;Min_cycle;Max_cycle;Signal;HPM_P1;HPM_P2
2023/11/15 00:00:29;;;;;;;0.50;0.50;;;;;;;10.48;92.92;95067.44;5125147;28;20226;-81
2023/11/15 00:02:57;;;;;;;2.03;0.50;;;;;;;10.53;93.39;95079.75;5119492;28;20203;-81
2023/11/15 00:05:23;;;;;;;0.63;0.50;;;;;;;10.52;93.30;95091.03;5124679;28;20222;-80
2023/11/15 00:07:50;;;;;;;0.60;0.60;;;;;;;10.49;94.15;95097.34;5124298;28;20869;-81
2023/11/15 00:10:16;;;;;;;0.70;0.57;;;;;;;10.48;94.05;95100.91;5124546;28;20290;-81
2023/11/15 00:12:44;;;;;;;0.50;0.50;;;;;;;10.51;94.26;95104.88;5124944;28;20208;-81
2023/11/15 00:15:10;;;;;;;0.60;0.60;;;;;;;10.52;94.20;95103.91;5125059;28;20279;-81
2023/11/15 00:17:37;;;;;;;0.50;0.50;;;;;;;10.44;94.30;95096.31;5115292;28;20220;-80
2023/11/15 00:20:08;;;;;;;0.67;0.67;;;;;;;10.52;94.50;95104.69;5122676;28;20205;-80
2023/11/15 00:22:34;;;;;;;0.93;0.53;;;;;;;10.51;93.70;95097.16;5124764;28;20234;-81
2023/11/15 00:25:01;;;;;;;0.57;0.57;;;;;;;10.54;93.35;95086.50;5124719;28;20218;-80
2023/11/15 00:27:27;;;;;;;0.70;0.53;;;;;;;10.59;93.01;95076.41;5124918;28;20226;-80
2023/11/15 00:29:54;;;;;;;0.50;0.50;;;;;;;10.67;92.36;95078.84;5125100;28;20245;-80
2023/11/15 00:32:20;;;;;;;0.60;0.60;;;;;;;10.69;92.40;95076.88;5123444;28;20199;-80
2023/11/15 00:34:47;;;;;;;0.60;0.50;;;;;;;10.64;92.71;95079.22;5122171;28;20199;-80
2023/11/15 00:37:15;;;;;;;0.63;0.50;;;;;;;10.63;92.74;95087.94;5123967;28;20230;-81
2023/11/15 00:39:41;;;;;;;0.60;0.60;;;;;;;10.68;93.48;95095.88;5124637;28;20196;-80
2023/11/15 00:42:08;;;;;;;2.37;0.73;;;;;;;10.71;93.72;95101.47;5124384;28;20206;-80
2023/11/15 00:44:35;;;;;;;1.27;0.60;;;;;;;10.66;93.95;95113.31;5123746;28;20215;-81
2023/11/15 00:47:03;;;;;;;1.33;0.70;;;;;;;10.65;94.26;95101.41;5123198;28;20207;-80
2023/11/15 00:49:29;;;;;;;0.93;0.90;;;;;;;10.73;94.80;95132.97;5116231;28;20196;-80
2023/11/15 00:51:56;;;;;;;0.93;0.70;;;;;;;10.72;94.70;95128.00;5118286;28;20283;-79
2023/11/15 00:54:24;;;;;;;0.57;0.57;;;;;;;10.68;95.38;95132.72;5125279;28;20208;-80
2023/11/15 00:56:51;;;;;;;0.70;0.70;;;;;;;10.66;95.45;95139.84;5126326;28;20586;-81
2023/11/15 00:59:21;;;;;;;0.80;0.60;;;;;;;10.68;95.87;95153.31;5128587;28;20227;-81
2023/11/15 01:01:57;;;;;;;2.03;0.60;;;;;;;10.72;96.30;95151.19;5128031;28;20191;-80
2023/11/15 01:04:24;;;;;;;2.40;0.70;;;;;;;10.61;96.71;95160.19;5127058;28;20210;-81
2023/11/15 01:06:50;;;;;;;0.50;0.50;;;;;;;10.65;96.65;95171.72;5122280;28;20204;-81
2023/11/15 01:09:17;;;;;;;0.63;0.60;;;;;;;10.79;96.47;95177.75;5126869;28;20265;-81
2023/11/15 01:11:45;;;;;;;0.57;0.57;;;;;;;10.84;96.05;95159.16;5127151;28;20233;-81
2023/11/15 01:14:11;;;;;;;2.57;0.80;;;;;;;10.89;95.14;95164.56;5127221;28;20564;-81
2023/11/15 01:16:38;;;;;;;0.63;0.57;;;;;;;10.93;94.75;95158.84;5126788;28;20264;-80
2023/11/15 01:19:04;;;;;;;0.90;0.80;;;;;;;10.83;93.51;95145.50;5126247;28;20215;-81
2023/11/15 01:21:31;;;;;;;1.03;0.70;;;;;;;10.87;92.90;95145.91;5127208;28;20238;-80
2023/11/15 01:23:57;;;;;;;1.00;0.70;;;;;;;10.92;94.00;95171.91;5121076;28;20291;-80
2023/11/15 01:26:24;;;;;;;0.60;0.60;;;;;;;10.89;94.67;95187.75;5105603;28;20210;-80
2023/11/15 01:28:52;;;;;;;2.03;0.80;;;;;;;10.92;94.83;95200.25;5106166;28;20221;-80
2023/11/15 01:31:18;;;;;;;1.20;0.80;;;;;;;10.91;92.65;95172.91;5110482;28;20213;-81
2023/11/15 01:33:45;;;;;;;0.73;0.50;;;;;;;10.95;92.19;95171.53;5126926;28;20199;-81
2023/11/15 01:36:11;;;;;;;2.57;0.60;;;;;;;10.92;92.36;95161.63;5109580;28;20257;-81
2023/11/15 01:38:38;;;;;;;0.97;0.63;;;;;;;10.97;91.32;95149.75;5110630;28;20207;-80
2023/11/15 01:41:06;;;;;;;1.07;0.70;;;;;;;10.94;89.31;95110.72;5125129;28;20238;-80
2023/11/15 01:43:33;;;;;;;0.63;0.60;;;;;;;11.02;88.88;95113.13;5125470;28;20283;-80
2023/11/15 01:46:01;;;;;;;1.13;0.90;;;;;;;11.02;88.51;95097.66;5115814;28;20191;-81
2023/11/15 01:48:28;;;;;;;1.20;0.70;;;;;;;11.01;87.83;95109.75;5124545;28;20222;-81
2023/11/15 01:50:54;;;;;;;2.33;1.00;;;;;;;10.95;87.08;95092.50;5126158;28;20219;-80
2023/11/15 01:53:21;;;;;;;1.33;0.70;;;;;;;10.91;87.52;95088.69;5125870;28;20195;-80
2023/11/15 01:55:49;;;;;;;1.27;0.80;;;;;;;10.93;87.43;95093.66;5123031;28;20204;-81
2023/11/15 01:58:16;;;;;;;0.60;0.60;;;;;;;10.91;86.68;95080.19;5124701;28;20231;-81
2023/11/15 02:00:42;;;;;;;0.50;0.50;;;;;;;10.95;85.36;95059.00;5126283;28;20572;-80
2023/11/15 02:03:11;;;;;;;4.03;0.70;;;;;;;10.97;85.36;95053.63;5125301;28;20207;-80
2023/11/15 02:05:38;;;;;;;1.87;0.70;;;;;;;10.89;85.11;95069.28;5124984;28;20569;-81
2023/11/15 02:08:05;;;;;;;1.30;0.57;;;;;;;10.93;85.49;95070.47;5123645;28;20222;-81
2023/11/15 02:10:32;;;;;;;1.60;0.80;;;;;;;10.96;85.43;95085.56;5122071;28;20231;-81
2023/11/15 02:12:58;;;;;;;1.17;0.70;;;;;;;10.94;85.58;95097.84;5124113;28;20207;-80
2023/11/15 02:15:25;;;;;;;1.20;0.70;;;;;;;10.96;85.44;95090.72;5124588;28;20853;-80
2023/11/15 02:17:52;;;;;;;1.27;0.60;;;;;;;10.98;85.84;95101.59;5123045;28;20231;-81
2023/11/15 02:20:22;;;;;;;1.43;0.80;;;;;;;10.98;86.11;95099.03;5123166;28;20198;-80
2023/11/15 02:22:50;;;;;;;1.43;0.87;;;;;;;10.97;85.26;95097.44;5123497;28;20199;-81
2023/11/15 02:25:19;;;;;;;0.70;0.70;;;;;;;10.96;85.68;95108.75;5104998;28;20211;-80
2023/11/15 02:27:46;;;;;;;1.53;0.60;;;;;;;10.87;86.47;95133.03;5112525;28;20276;-81
2023/11/15 02:30:14;;;;;;;1.33;0.70;;;;;;;10.92;87.15;95149.53;5124360;28;20557;-81
2023/11/15 02:32:42;;;;;;;0.97;0.70;;;;;;;10.87;86.67;95148.50;5122648;28;20195;-81
2023/11/15 02:35:09;;;;;;;0.80;0.70;;;;;;;10.81;88.18;95167.25;5121827;28;20195;-80
2023/11/15 02:37:36;;;;;;;3.03;0.60;;;;;;;10.75;89.57;95183.50;5123069;28;20634;-80
2023/11/15 02:40:05;;;;;;;0.90;0.70;;;;;;;10.69;92.18;95252.75;5122268;28;20227;-80
2023/11/15 02:42:34;;;;;;;1.63;0.63;;;;;;;10.59;95.64;95293.44;5114312;28;20254;-80
2023/11/15 02:45:00;;;;;;;1.50;0.70;;;;;;;10.55;97.41;95327.47;5122336;28;20200;-81
2023/11/15 02:47:27;;;;;;;1.73;0.80;;;;;;;10.65;97.92;95343.41;5122051;28;20223;-81
2023/11/15 02:49:54;;;;;;;0.90;0.70;;;;;;;10.66;97.48;95339.88;5122328;28;20210;-80
2023/11/15 02:52:20;;;;;;;1.40;0.80;;;;;;;10.65;97.80;95336.50;5122379;28;20226;-80
2023/11/15 02:54:47;;;;;;;3.20;1.10;;;;;;;10.64;97.54;95334.91;5122483;28;20203;-81
2023/11/15 02:57:13;;;;;;;0.57;0.53;;;;;;;10.56;97.89;95342.75;5121661;28;20576;-80
2023/11/15 02:59:41;;;;;;;1.50;0.90;;;;;;;10.61;97.80;95340.41;5120095;28;20196;-80
2023/11/15 03:02:08;;;;;;;1.10;0.80;;;;;;;10.67;97.12;95354.34;5112697;28;20265;-80
2023/11/15 03:04:34;;;;;;;1.47;0.80;;;;;;;10.64;96.54;95344.41;5121921;28;20208;-80
2023/11/15 03:07:01;;;;;;;2.07;0.80;;;;;;;10.70;96.01;95338.53;5121791;28;20207;-81
2023/11/15 03:09:27;;;;;;;0.63;0.60;;;;;;;10.65;95.67;95351.94;5121945;28;20203;-80
2023/11/15 03:11:54;;;;;;;2.13;0.83;;;;;;;10.61;94.60;95337.03;5122812;28;20223;-80
2023/11/15 03:14:20;;;;;;;1.30;0.77;;;;;;;10.64;93.97;95332.31;5121891;28;20191;-80
2023/11/15 03:16:48;;;;;;;1.23;0.63;;;;;;;10.77;92.89;95323.16;5120396;28;20617;-80
2023/11/15 03:19:15;;;;;;;3.53;0.90;;;;;;;10.77;91.90;95318.00;5122015;28;20227;-80
2023/11/15 03:21:41;;;;;;;2.00;0.70;;;;;;;10.76;91.01;95288.06;5122516;28;20267;-81
2023/11/15 03:24:08;;;;;;;0.90;0.70;;;;;;;10.70;90.31;95277.53;5119298;28;20203;-81
2023/11/15 03:26:35;;;;;;;1.27;0.80;;;;;;;10.65;89.07;95266.19;5120310;28;20549;-80
2023/11/15 03:29:01;;;;;;;0.87;0.63;;;;;;;10.64;88.47;95259.44;5101187;28;20830;-81
2023/11/15 03:31:29;;;;;;;0.73;0.67;;;;;;;10.59;87.93;95259.97;5100287;28;20270;-81
2023/11/15 03:33:58;;;;;;;1.53;0.70;;;;;;;10.60;87.95;95258.19;5120692;28;20203;-80
2023/11/15 03:36:25;;;;;;;1.53;0.60;;;;;;;10.64;87.75;95262.81;5119146;28;20203;-81
2023/11/15 03:38:51;;;;;;;2.07;0.70;;;;;;;10.63;87.91;95263.78;5113178;28;20231;-80
2023/11/15 03:41:17;;;;;;;0.60;0.60;;;;;;;10.57;87.10;95258.59;5121895;28;20204;-81
2023/11/15 03:43:44;;;;;;;1.27;0.60;;;;;;;10.58;86.79;95260.97;5120691;28;20203;-81
2023/11/15 03:46:10;;;;;;;1.70;0.70;;;;;;;10.40;86.40;95252.88;5120170;28;20201;-80
2023/11/15 03:48:37;;;;;;;0.80;0.67;;;;;;;10.44;86.67;95258.44;5118920;28;20211;-81
2023/11/15 03:51:05;;;;;;;1.90;0.77;;;;;;;10.45;86.03;95255.69;5121138;28;20223;-80
2023/11/15 03:53:32;;;;;;;1.40;0.70;;;;;;;10.47;86.01;95253.75;5120669;28;20213;-80
2023/11/15 03:55:59;;;;;;;0.77;0.60;;;;;;;10.39;85.09;95243.59;5122233;28;20203;-80
2023/11/15 03:58:25;;;;;;;0.63;0.57;;;;;;;10.45;84.99;95245.41;5121347;28;20578;-81
2023/11/15 04:00:52;;;;;;;1.00;0.53;;;;;;;10.46;85.22;95249.56;5121077;28;20196;-79
2023/11/15 04:03:18;;;;;;;1.80;0.70;;;;;;;10.48;84.25;95228.81;5121754;28;20206;-82
2023/11/15 04:05:46;;;;;;;1.73;0.80;;;;;;;10.43;82.87;95198.47;5115374;28;20215;-83
2023/11/15 04:08:14;;;;;;;1.80;0.77;;;;;;;10.47;82.62;95215.13;5116438;28;20226;-81
2023/11/15 04:10:40;;;;;;;0.60;0.60;;;;;;;10.50;82.15;95221.69;5120595;28;20205;-82
2023/11/15 04:13:07;;;;;;;0.93;0.70;;;;;;;10.46;81.50;95197.31;5120082;28;20237;-81
2023/11/15 04:15:33;;;;;;;0.83;0.60;;;;;;;10.46;81.26;95192.16;5120312;28;20225;-81
2023/11/15 04:18:01;;;;;;;0.67;0.63;;;;;;;10.44;80.99;95192.34;5121631;28;20212;-80
2023/11/15 04:20:27;;;;;;;1.23;0.60;;;;;;;10.45;80.61;95201.66;5118898;28;20238;-80
2023/11/15 04:22:54;;;;;;;1.40;0.83;;;;;;;10.43;81.03;95197.66;5120564;28;20211;-81
2023/11/15 04:25:21;;;;;;;1.10;0.60;;;;;;;10.39;81.06;95203.19;5119404;28;20200;-81
2023/11/15 04:27:48;;;;;;;1.40;0.60;;;;;;;10.44;81.14;95222.41;5120567;28;20222;-81
2023/11/15 04:30:15;;;;;;;1.47;0.50;;;;;;;10.40;80.78;95214.28;5123939;28;20200;-81
2023/11/15 04:32:43;;;;;;;1.23;0.60;;;;;;;10.33;80.99;95229.66;5121279;28;20212;-80
2023/11/15 04:35:09;;;;;;;1.03;0.60;;;;;;;10.38;81.27;95242.00;5121240;28;20192;-81
2023/11/15 04:37:36;;;;;;;1.47;0.70;;;;;;;10.37;81.28;95253.25;5120399;28;20219;-80
2023/11/15 04:40:03;;;;;;;0.50;0.50;;;;;;;10.40;81.66;95263.16;5125801;28;20199;-80
2023/11/15 04:42:31;;;;;;;0.97;0.50;;;;;;;10.42;82.03;95265.56;5126003;28;20191;-81
2023/11/15 04:44:58;;;;;;;0.40;0.40;;;;;;;10.48;81.83;95278.50;5125048;28;20489;-80
2023/11/15 04:47:24;;;;;;;0.83;0.60;;;;;;;10.55;82.02;95288.88;5123343;28;20223;-80
2023/11/15 04:49:51;;;;;;;1.10;0.70;;;;;;;10.54;81.57;95287.28;5124172;28;20206;-80
2023/11/15 04:52:17;;;;;;;0.90;0.60;;;;;;;10.47;82.09;95296.69;5119604;28;20613;-81
2023/11/15 04:54:44;;;;;;;0.80;0.70;;;;;;;10.48;82.25;95306.81;5124524;28;20207;-81
2023/11/15 04:57:10;;;;;;;0.67;0.67;;;;;;;10.48;82.55;95318.88;5124498;28;20613;-81
2023/11/15 04:59:38;;;;;;;1.07;0.60;;;;;;;10.45;82.58;95314.09;5124411;28;20203;-81
2023/11/15 05:02:05;;;;;;;1.07;0.67;;;;;;;10.41;83.24;95329.09;5123179;28;20258;-82
2023/11/15 05:04:31;;;;;;;1.77;0.70;;;;;;;10.44;83.67;95340.81;5123384;28;20207;-81
2023/11/15 05:06:57;;;;;;;0.90;0.60;;;;;;;10.45;83.80;95345.78;5123353;28;20199;-81
2023/11/15 05:09:24;;;;;;;0.97;0.70;;;;;;;10.36;84.20;95350.25;5121086;28;20226;-81
2023/11/15 05:11:50;;;;;;;0.77;0.60;;;;;;;10.23;84.95;95359.56;5122835;28;20222;-81
2023/11/15 05:14:17;;;;;;;1.70;0.80;;;;;;;10.25;85.25;95361.00;5123630;28;20204;-82
2023/11/15 05:16:45;;;;;;;1.33;0.73;;;;;;;10.20;85.37;95373.59;5122976;28;20199;-81
2023/11/15 05:19:11;;;;;;;0.83;0.70;;;;;;;10.26;85.51;95361.78;5123149;28;20219;-82
2023/11/15 05:21:37;;;;;;;2.07;0.60;;;;;;;10.28;85.49;95370.13;5123637;28;20198;-81
2023/11/15 05:24:05;;;;;;;0.77;0.67;;;;;;;10.20;85.65;95363.28;5120266;28;20200;-81
2023/11/15 05:26:31;;;;;;;3.20;0.70;;;;;;;10.26;85.52;95374.66;5122638;28;20207;-81
2023/11/15 05:28:58;;;;;;;1.20;0.73;;;;;;;10.29;85.33;95366.59;5127578;28;20219;-82
2023/11/15 05:31:25;;;;;;;0.90;0.70;;;;;;;10.24;85.18;95354.25;5117882;28;20785;-82
2023/11/15 05:33:53;;;;;;;1.60;0.70;;;;;;;10.16;84.87;95356.09;5127529;28;20282;-81
2023/11/15 05:36:19;;;;;;;1.13;0.70;;;;;;;10.24;85.16;95379.19;5128117;28;20203;-81
2023/11/15 05:38:45;;;;;;;0.80;0.70;;;;;;;10.24;84.35;95359.41;5127116;28;20229;-81
2023/11/15 05:41:12;;;;;;;2.00;0.87;;;;;;;10.33;84.11;95352.38;5125579;28;20210;-81
2023/11/15 05:43:38;;;;;;;1.97;0.70;;;;;;;10.33;83.38;95335.16;5127762;28;20203;-82
2023/11/15 05:46:05;;;;;;;1.40;0.90;;;;;;;10.30;83.15;95321.88;5127819;28;20199;-82
2023/11/15 05:48:33;;;;;;;1.37;0.90;;;;;;;10.29;82.84;95333.94;5126626;28;20245;-81
2023/11/15 05:51:01;;;;;;;0.87;0.77;;;;;;;10.33;82.86;95336.94;5127206;28;20204;-82
2023/11/15 05:53:28;;;;;;;1.00;0.60;;;;;;;10.39;82.76;95334.44;5125865;28;20276;-81
2023/11/15 05:55:54;;;;;;;0.67;0.63;;;;;;;10.31;82.71;95331.19;5108889;28;20212;-82
2023/11/15 05:58:21;;;;;;;1.47;0.80;;;;;;;10.33;82.32;95326.66;5117825;28;20220;-81
2023/11/15 06:00:48;;;;;;;1.20;0.70;;;;;;;10.38;82.03;95314.84;5117922;28;20212;-82
2023/11/15 06:03:14;;;;;;;0.70;0.70;;;;;;;10.36;81.61;95310.84;5105348;28;20204;-81
2023/11/15 06:05:42;;;;;;;1.07;0.80;;;;;;;10.36;81.91;95321.16;5105533;28;20200;-82
2023/11/15 06:08:10;;;;;;;1.77;0.90;;;;;;;10.36;81.68;95321.94;5116041;28;20230;-81
2023/11/15 06:10:36;;;;;;;1.57;0.80;;;;;;;10.36;81.81;95332.25;5126365;28;20203;-81
2023/11/15 06:13:06;;;;;;;3.03;1.10;;;;;;;10.33;81.72;95334.38;5124207;28;20226;-81
2023/11/15 06:15:32;;;;;;;2.43;0.80;;;;;;;10.34;82.14;95336.75;5124319;28;20325;-80
2023/11/15 06:17:59;;;;;;;2.47;1.10;;;;;;;10.37;82.23;95349.28;5104059;28;20835;-81
2023/11/15 06:20:25;;;;;;;1.53;0.80;;;;;;;10.38;81.98;95344.94;5102882;28;20226;-81
2023/11/15 06:22:52;;;;;;;1.60;0.80;;;;;;;10.36;81.33;95336.59;5102046;28;20665;-81
2023/11/15 06:25:20;;;;;;;1.43;0.90;;;;;;;10.36;81.70;95342.53;5109497;28;20230;-81
2023/11/15 06:27:46;;;;;;;1.20;0.80;;;;;;;10.23;82.03;95350.06;5114557;28;20215;-81
2023/11/15 06:30:16;;;;;;;1.20;0.90;;;;;;;10.27;82.10;95355.66;5120828;28;20200;-81
2023/11/15 06:32:43;;;;;;;1.43;0.80;;;;;;;10.29;82.24;95366.59;5122840;28;20280;-80
2023/11/15 06:35:09;;;;;;;2.07;1.03;;;;;;;10.35;82.24;95369.25;5123143;28;20203;-81
2023/11/15 06:37:36;;;;;;;1.90;1.20;;;;;;;10.33;82.22;95378.13;5122262;28;20636;-81
2023/11/15 06:40:07;;;;;;;1.77;0.87;;;;;;;10.34;82.21;95380.50;5122203;28;20206;-81
2023/11/15 06:42:35;;;;;;;3.33;1.00;;;;;;;10.45;83.29;95415.28;5122301;28;20191;-81
2023/11/15 06:45:03;;;;;;;5.33;4.40;;;;;;;10.41;82.23;95390.06;5119069;28;20197;-81
2023/11/15 06:47:29;;;;;;;1.70;0.87;;;;;;;10.46;82.27;95387.75;5120899;28;20227;-81
2023/11/15 06:49:56;;;;;;;1.10;0.90;;;;;;;10.46;82.20;95385.97;5125428;28;20375;-81
2023/11/15 06:52:22;;;;;;;3.70;0.90;;;;;;;10.51;84.96;95458.31;5120857;28;20230;-80
2023/11/15 06:54:49;;;;;;;1.17;0.80;;;;;;;10.56;83.75;95438.00;5121143;28;20199;-80
2023/11/15 06:57:18;;;;;;;1.20;0.83;;;;;;;10.65;85.30;95472.94;5121438;28;20195;-80
2023/11/15 06:59:46;;;;;;;1.10;0.80;;;;;;;10.66;82.45;95415.31;5120991;28;20219;-81
2023/11/15 07:02:12;;;;;;;1.53;1.00;;;;;;;10.61;81.69;95406.53;5120084;28;20215;-81
2023/11/15 07:04:40;;;;;;;0.83;0.80;;;;;;;10.61;81.96;95397.03;5121532;28;20200;-81
2023/11/15 07:07:07;;;;;;;1.13;0.80;;;;;;;10.55;82.04;95417.59;5121945;28;20203;-81
2023/11/15 07:09:34;;;;;;;1.13;0.87;;;;;;;10.48;82.34;95421.84;5122156;28;20199;-81
2023/11/15 07:12:02;;;;;;;2.53;1.00;;;;;;;10.52;82.43;95435.94;5120389;28;20273;-81
2023/11/15 07:14:28;;;;;;;2.47;0.90;;;;;;;10.43;82.94;95445.53;5100741;28;20220;-82
2023/11/15 07:16:56;;;;;;;1.70;1.10;;;;;;;10.45;83.04;95458.22;5111102;28;20610;-81
2023/11/15 07:19:24;;;;;;;1.60;0.77;;;;;;;10.43;83.11;95466.13;5119601;28;20223;-81
2023/11/15 07:21:52;;;;;;;2.60;2.07;;;;;;;10.43;83.27;95486.72;5114135;28;20798;-82
2023/11/15 07:24:19;;;;;;;3.00;1.90;;;;;;;10.50;83.20;95487.63;5113719;28;20196;-81
2023/11/15 07:26:45;;;;;;;1.87;1.00;;;;;;;10.56;83.05;95480.97;5117638;28;20196;-81
2023/11/15 07:29:13;;;;;;;1.37;0.90;;;;;;;10.62;82.91;95486.19;5117831;28;20219;-81
2023/11/15 07:31:42;;;;;;;2.20;0.80;;;;;;;10.67;82.34;95480.50;5118221;28;20191;-81
2023/11/15 07:34:10;;;;;;;3.57;0.90;;;;;;;10.63;82.44;95477.47;5115760;28;20219;-81
2023/11/15 07:36:37;;;;;;;1.50;1.07;;;;;;;10.64;82.52;95480.84;5116653;28;20276;-81
2023/11/15 07:39:05;;;;;;;2.03;1.00;;;;;;;10.56;82.46;95468.09;5117731;28;20227;-81
2023/11/15 07:41:32;;;;;;;1.97;0.90;;;;;;;10.53;82.50;95478.75;5118714;28;20199;-81
2023/11/15 07:43:59;;;;;;;1.23;0.93;;;;;;;10.54;82.38;95483.72;5117912;28;20267;-82
2023/11/15 07:46:25;;;;;;;2.47;0.80;;;;;;;10.62;82.34;95483.59;5118362;28;20199;-81
2023/11/15 07:48:52;;;;;;;2.07;1.10;;;;;;;10.67;82.21;95477.94;5118906;28;20226;-81
2023/11/15 07:51:20;;;;;;;1.00;0.80;;;;;;;10.65;82.25;95479.88;5112275;28;20203;-82
2023/11/15 07:53:48;;;;;;;3.03;1.00;;;;;;;10.67;82.17;95481.28;5117645;28;20211;-81
2023/11/15 07:56:15;;;;;;;1.13;0.70;;;;;;;10.64;82.02;95463.63;5116234;28;20203;-81
2023/11/15 07:58:45;;;;;;;3.00;1.00;;;;;;;10.72;81.92;95471.25;5116709;28;20219;-81
2023/11/15 08:01:11;;;;;;;2.23;0.90;;;;;;;10.71;81.54;95463.72;5117126;28;20206;-81
2023/11/15 08:03:38;;;;;;;1.50;1.10;;;;;;;10.72;81.23;95460.97;5118631;28;20260;-81
2023/11/15 08:06:05;;;;;;;1.47;1.07;;;;;;;10.78;81.40;95461.19;5118685;28;20206;-81
2023/11/15 08:08:33;;;;;;;1.57;1.00;;;;;;;10.75;80.77;95446.94;5120417;28;20219;-81
2023/11/15 08:11:02;;;;;;;2.00;1.00;;;;;;;10.68;80.73;95436.53;5120323;28;20218;-81
2023/11/15 08:13:28;;;;;;;4.37;0.90;;;;;;;10.68;80.66;95451.19;5119514;28;20276;-81
2023/11/15 08:15:56;;;;;;;1.73;0.90;;;;;;;10.71;80.57;95438.78;5116191;28;20688;-80
2023/11/15 08:18:22;;;;;;;2.53;0.97;;;;;;;10.82;80.33;95434.91;5110621;28;20314;-81
2023/11/15 08:20:49;;;;;;;1.30;0.80;;;;;;;10.99;78.72;95409.72;5120489;28;20203;-80
2023/11/15 08:23:15;;;;;;;1.70;0.70;;;;;;;11.15;79.88;95435.28;5115057;28;20259;-80
2023/11/15 08:25:50;;;;;;;2.43;1.07;;;;;;;11.17;79.30;95433.28;5121137;28;20260;-80
2023/11/15 08:28:16;;;;;;;2.63;0.97;;;;;;;11.20;79.26;95450.97;5122173;28;20222;-80
2023/11/15 08:30:44;;;;;;;2.43;0.90;;;;;;;11.06;77.90;95406.25;5121084;28;20561;-81
2023/11/15 08:33:10;;;;;;;1.83;0.90;;;;;;;11.07;78.36;95425.06;5100100;28;20220;-82
2023/11/15 08:35:37;;;;;;;1.87;0.97;;;;;;;11.01;78.15;95413.72;5099387;28;20231;-82
2023/11/15 08:38:04;;;;;;;2.90;2.03;;;;;;;11.01;77.92;95421.44;5103003;28;20223;-81
2023/11/15 08:40:31;;;;;;;5.57;2.30;;;;;;;10.93;77.69;95418.19;5118409;28;20204;-81
2023/11/15 08:42:59;;;;;;;3.50;1.20;;;;;;;10.83;77.51;95413.34;5118795;28;20199;-81
2023/11/15 08:45:26;;;;;;;2.23;0.80;;;;;;;10.91;77.43;95417.59;5118213;28;20211;-81
2023/11/15 08:47:56;;;;;;;1.63;0.80;;;;;;;10.96;77.19;95410.13;5117175;28;20227;-81
2023/11/15 08:50:24;;;;;;;2.03;0.90;;;;;;;11.03;77.27;95426.41;5117495;28;20587;-80
2023/11/15 08:52:50;;;;;;;2.90;1.07;;;;;;;11.00;77.49;95444.81;5117735;28;20701;-81
2023/11/15 08:55:18;;;;;;;1.90;1.10;;;;;;;10.89;77.44;95427.25;5115641;28;20202;-81
2023/11/15 08:57:46;;;;;;;1.67;1.00;;;;;;;10.95;78.24;95450.53;5116998;28;20219;-81
2023/11/15 09:00:18;;;;;;;4.07;1.13;;;;;;;10.97;77.92;95453.69;5117448;28;20215;-81
2023/11/15 09:02:46;;;;;;;1.83;0.90;;;;;;;10.95;77.90;95447.97;5116802;28;20222;-81
2023/11/15 09:05:13;;;;;;;1.63;0.90;;;;;;;11.01;77.55;95446.41;5117740;28;20210;-81
2023/11/15 09:07:40;;;;;;;4.17;1.20;;;;;;;10.92;77.57;95440.59;5110241;28;20302;-82
2023/11/15 09:10:08;;;;;;;3.37;1.10;;;;;;;10.90;78.26;95460.56;5107749;28;20229;-81
2023/11/15 09:12:36;;;;;;;1.87;1.00;;;;;;;10.87;78.22;95460.94;5117853;28;20236;-81
2023/11/15 09:15:04;;;;;;;1.73;0.80;;;;;;;10.87;78.24;95463.50;5109192;28;20191;-81
2023/11/15 09:17:32;;;;;;;9.33;6.77;;;;;;;10.92;78.55;95488.72;5098638;28;20219;-81
2023/11/15 09:19:59;;;;;;;2.70;1.37;;;;;;;10.98;78.29;95475.09;5096181;28;20208;-81
2023/11/15 09:22:27;;;;;;;2.73;0.90;;;;;;;10.94;78.02;95469.53;5095307;28;20692;-81
2023/11/15 09:24:54;;;;;;;1.30;0.80;;;;;;;10.89;77.13;95451.25;5094827;28;20275;-81
2023/11/15 09:27:23;;;;;;;1.63;0.80;;;;;;;10.87;77.06;95452.41;5104253;28;20258;-82
2023/11/15 09:29:51;;;;;;;1.23;0.77;;;;;;;10.98;77.25;95470.75;5116148;28;20271;-81
2023/11/15 09:32:18;;;;;;;1.00;0.83;;;;;;;10.91;77.31;95471.69;5115603;28;20192;-81
2023/11/15 09:34:46;;;;;;;1.70;0.80;;;;;;;10.86;78.23;95494.59;5115835;28;20787;-81
2023/11/15 09:37:13;;;;;;;2.07;0.80;;;;;;;10.91;78.93;95513.69;5116540;28;20203;-81
2023/11/15 09:39:39;;;;;;;2.23;0.80;;;;;;;11.00;78.77;95516.94;5115400;28;20727;-82
2023/11/15 09:42:10;;;;;;;2.83;0.90;;;;;;;11.04;77.80;95492.41;5113734;28;20222;-81
2023/11/15 09:44:41;;;;;;;1.33;0.90;;;;;;;11.00;77.37;95473.94;5113807;28;20225;-81
2023/11/15 09:47:08;;;;;;;2.10;0.80;;;;;;;11.00;78.27;95486.81;5114592;28;20207;-81
2023/11/15 09:49:37;;;;;;;2.27;0.90;;;;;;;11.02;77.86;95502.09;5114473;28;20199;-81
2023/11/15 09:52:06;;;;;;;2.20;1.03;;;;;;;11.03;77.98;95508.84;5113875;28;20199;-81
2023/11/15 09:54:33;;;;;;;1.37;0.80;;;;;;;10.99;78.58;95523.06;5114300;28;20215;-80
2023/11/15 09:57:00;;;;;;;3.53;1.20;;;;;;;11.02;78.91;95545.91;5112694;28;20211;-81
2023/11/15 09:59:27;;;;;;;3.10;0.73;;;;;;;11.02;80.91;95608.53;5107837;28;20230;-81
2023/11/15 10:01:53;;;;;;;2.37;1.00;;;;;;;10.90;83.43;95660.69;5112721;28;20589;-82
2023/11/15 10:04:24;;;;;;;2.03;1.10;;;;;;;10.91;85.96;95703.50;5112292;28;20200;-81
2023/11/15 10:06:51;;;;;;;2.13;0.90;;;;;;;10.97;86.27;95718.25;5111684;28;20682;-81
2023/11/15 10:09:35;;;;;;;2.03;1.00;;;;;;;10.96;86.21;95714.88;5112236;28;20264;-81
2023/11/15 10:12:03;;;;;;;4.67;3.80;;;;;;;11.02;84.74;95685.03;5099730;28;20196;-81
2023/11/15 10:14:32;;;;;;;1.90;1.30;;;;;;;11.10;82.19;95628.28;5091919;28;20224;-81
2023/11/15 10:17:00;;;;;;;3.97;1.10;;;;;;;11.17;80.93;95587.09;5116700;28;20234;-81
2023/11/15 10:19:27;;;;;;;2.70;1.00;;;;;;;11.42;77.77;95506.72;5127067;28;20226;-81
2023/11/15 10:22:00;;;;;;;1.53;0.90;;;;;;;11.57;76.07;95469.75;5128085;28;20196;-81
2023/11/15 10:24:28;;;;;;;1.73;1.00;;;;;;;11.55;73.79;95387.41;5126559;28;20195;-81
2023/11/15 10:26:59;;;;;;;1.10;0.87;;;;;;;11.50;72.75;95352.88;5125665;28;20203;-81
2023/11/15 10:29:27;;;;;;;1.20;0.80;;;;;;;11.43;72.24;95329.63;5127623;28;20241;-81
2023/11/15 10:31:57;;;;;;;3.40;1.00;;;;;;;11.40;72.80;95351.41;5122456;28;20199;-81
2023/11/15 10:34:28;;;;;;;3.40;1.00;;;;;;;11.36;71.83;95319.25;5126704;28;20224;-81
2023/11/15 10:37:02;;;;;;;4.00;1.17;;;;;;;11.34;71.39;95313.53;5126543;28;20195;-81
2023/11/15 10:39:32;;;;;;;1.53;0.70;;;;;;;11.36;71.76;95329.56;5126564;28;20257;-81
2023/11/15 10:41:58;;;;;;;2.23;0.90;;;;;;;11.44;72.34;95351.84;5125711;28;20549;-81
2023/11/15 10:44:25;;;;;;;2.10;0.70;;;;;;;11.42;72.43;95358.97;5125141;28;20230;-81
2023/11/15 10:46:53;;;;;;;2.67;0.90;;;;;;;11.51;72.88;95378.50;5123263;28;20508;-81
2023/11/15 10:49:22;;;;;;;1.50;1.03;;;;;;;11.53;72.35;95347.38;5125435;28;20223;-81
2023/11/15 10:51:51;;;;;;;2.07;1.07;;;;;;;11.48;71.95;95350.50;5125666;28;20727;-81
2023/11/15 10:54:17;;;;;;;2.00;0.90;;;;;;;11.39;71.28;95333.56;5117398;28;20238;-81
2023/11/15 10:56:49;;;;;;;2.63;1.20;;;;;;;11.38;72.16;95358.53;5110326;28;20199;-80
2023/11/15 10:59:19;;;;;;;2.73;0.90;;;;;;;11.37;71.82;95354.38;5090044;28;20299;-81
2023/11/15 11:01:46;;;;;;;2.43;1.27;;;;;;;11.38;72.20;95376.59;5090497;28;20200;-81
2023/11/15 11:04:16;;;;;;;3.07;2.43;;;;;;;11.43;73.39;95412.91;5098881;28;20687;-81
2023/11/15 11:06:50;;;;;;;3.40;2.20;;;;;;;11.49;73.58;95426.84;5110057;28;20230;-81
2023/11/15 11:09:21;;;;;;;1.73;0.67;;;;;;;11.53;71.50;95344.78;5106736;28;20267;-81
2023/11/15 11:11:53;;;;;;;2.37;0.77;;;;;;;11.51;70.83;95313.22;5110838;28;20773;-81
2023/11/15 11:14:26;;;;;;;1.10;0.80;;;;;;;11.50;70.07;95286.66;5113829;28;20226;-81
2023/11/15 11:16:52;;;;;;;1.57;1.00;;;;;;;11.37;69.87;95273.66;5100519;28;20204;-81
2023/11/15 11:19:21;;;;;;;1.73;0.70;;;;;;;11.38;70.26;95301.03;5089343;28;20526;-81
2023/11/15 11:22:06;;;;;;;2.23;1.10;;;;;;;11.33;70.65;95311.94;5110741;28;20611;-81
2023/11/15 11:24:33;;;;;;;0.97;0.63;;;;;;;11.31;71.07;95329.34;5109234;28;20740;-81
2023/11/15 11:27:36;;;;;;;1.63;0.87;;;;;;;11.33;73.36;95394.41;5116138;28;20199;-81
2023/11/15 11:30:23;;;;;;;1.73;1.00;;;;;;;11.46;74.47;95450.44;5110419;28;20187;-80
2023/11/15 11:33:06;;;;;;;4.23;0.90;;;;;;;11.46;76.30;95509.72;5110127;28;20203;-81
2023/11/15 11:35:34;;;;;;;1.70;0.87;;;;;;;11.47;78.93;95570.63;5108616;28;20223;-81